Time;durP1;ratioP1;P1;durP2;ratioP2;P2;SDS_P1;SDS_P2;PMS_P1;PMS_P2;Temp;Humidity;BMP_temperature;BMP_pressure;BME280_temperature;BME280_humidity;BME280_pressure;Samples;Min_cycle;Max_cycle;Signal;HPM_P1;HPM_P2
2023/12/19 00:00:46;;;;;;;16.40;9.77;;;2.20;24.80;;;;;;5045112;28;20989;-67
2023/12/19 00:03:13;;;;;;;17.50;10.30;;;2.20;24.80;;;;;;5028282;28;20486;-66
2023/12/19 00:05:43;;;;;;;13.93;9.70;;;2.20;24.90;;;;;;5027058;28;20462;-67
2023/12/19 00:08:10;;;;;;;13.50;8.80;;;2.20;24.90;;;;;;5024292;28;20562;-67
2023/12/19 00:10:37;;;;;;;14.60;8.77;;;2.20;25.00;;;;;;5026299;28;20492;-67
2023/12/19 00:13:04;;;;;;;14.60;9.30;;;2.20;25.10;;;;;;5028424;28;20462;-67
2023/12/19 00:15:31;;;;;;;15.97;9.87;;;2.20;25.30;;;;;;5028322;28;20462;-67
2023/12/19 00:17:58;;;;;;;17.40;10.17;;;2.20;25.30;;;;;;5026765;28;20470;-66
2023/12/19 00:20:25;;;;;;;14.23;9.87;;;2.30;25.30;;;;;;5027197;28;20509;-68
2023/12/19 00:22:53;;;;;;;14.17;9.83;;;2.30;25.30;;;;;;5028815;28;20574;-68
2023/12/19 00:25:21;;;;;;;15.97;10.00;;;2.30;25.20;;;;;;5026856;28;20495;-68
2023/12/19 00:27:48;;;;;;;14.83;9.20;;;2.30;25.30;;;;;;5024409;28;20978;-69
2023/12/19 00:30:15;;;;;;;15.97;9.70;;;2.30;25.10;;;;;;5026162;28;20486;-68
2023/12/19 00:32:41;;;;;;;16.00;9.33;;;2.20;25.10;;;;;;5027958;28;20462;-68
2023/12/19 00:35:08;;;;;;;16.33;9.83;;;2.30;25.20;;;;;;5027830;28;20481;-68
2023/12/19 00:37:35;;;;;;;16.37;10.03;;;2.30;25.10;;;;;;5029546;28;20459;-68
2023/12/19 00:40:04;;;;;;;20.30;11.07;;;2.30;25.10;;;;;;5028874;28;20467;-68
2023/12/19 00:42:31;;;;;;;15.73;9.10;;;2.30;25.20;;;;;;5029488;28;20489;-68
2023/12/19 00:44:57;;;;;;;16.70;10.13;;;2.30;25.40;;;;;;5027939;28;20466;-68
2023/12/19 00:47:24;;;;;;;15.73;9.97;;;2.30;25.40;;;;;;5030616;28;20813;-68
2023/12/19 00:49:51;;;;;;;16.00;10.20;;;2.30;25.40;;;;;;5029515;28;20481;-67
2023/12/19 00:52:18;;;;;;;17.10;9.90;;;2.30;25.50;;;;;;5031403;28;20458;-68
2023/12/19 00:54:44;;;;;;;16.37;10.67;;;2.30;25.50;;;;;;5028390;28;20533;-68
2023/12/19 00:57:12;;;;;;;16.40;10.03;;;2.30;25.70;;;;;;5026451;28;20486;-68
2023/12/19 00:59:40;;;;;;;14.97;9.77;;;2.30;25.60;;;;;;5029875;28;20522;-69
2023/12/19 01:02:07;;;;;;;15.40;9.33;;;2.30;25.70;;;;;;5026966;28;20509;-69
2023/12/19 01:04:33;;;;;;;18.80;10.33;;;2.20;25.50;;;;;;5027557;28;20474;-70
2023/12/19 01:07:00;;;;;;;15.50;9.60;;;2.30;25.70;;;;;;5026159;28;20462;-69
2023/12/19 01:09:27;;;;;;;16.77;10.37;;;2.30;25.50;;;;;;5027364;28;20490;-69
2023/12/19 01:11:54;;;;;;;17.50;10.50;;;2.20;25.40;;;;;;5028273;28;20471;-69
2023/12/19 01:14:22;;;;;;;15.70;10.10;;;2.30;25.50;;;;;;5024984;28;20463;-69
2023/12/19 01:16:48;;;;;;;15.27;9.40;;;2.30;25.50;;;;;;5025669;28;20479;-69
2023/12/19 01:19:15;;;;;;;14.43;9.10;;;2.30;25.40;;;;;;5024801;28;20489;-69
2023/12/19 01:21:42;;;;;;;17.67;10.60;;;2.30;25.40;;;;;;5024685;28;20475;-69
2023/12/19 01:24:08;;;;;;;14.80;10.07;;;2.30;25.30;;;;;;5025391;28;20487;-69
2023/12/19 01:26:35;;;;;;;18.30;9.60;;;2.20;25.30;;;;;;5026138;28;21042;-68
2023/12/19 01:29:03;;;;;;;14.73;9.10;;;2.20;25.30;;;;;;5028135;28;20483;-69
2023/12/19 01:31:31;;;;;;;16.03;10.47;;;2.20;25.30;;;;;;5029195;28;20479;-68
2023/12/19 01:33:57;;;;;;;16.00;10.00;;;2.20;25.20;;;;;;5022154;28;20459;-68
2023/12/19 01:36:25;;;;;;;13.70;8.30;;;2.20;25.10;;;;;;5024677;28;20478;-69
2023/12/19 01:38:52;;;;;;;14.53;9.00;;;2.20;25.10;;;;;;5025318;28;20491;-68
2023/12/19 01:41:19;;;;;;;15.13;8.83;;;2.20;25.10;;;;;;5026229;28;20474;-69
2023/12/19 01:43:46;;;;;;;13.33;8.17;;;2.20;25.20;;;;;;5027165;28;20501;-69
2023/12/19 01:46:16;;;;;;;12.60;8.43;;;2.20;25.10;;;;;;5031262;28;20464;-69
2023/12/19 01:48:44;;;;;;;13.70;8.23;;;2.20;25.20;;;;;;5028142;28;20474;-69
2023/12/19 01:51:12;;;;;;;12.27;7.63;;;2.20;25.20;;;;;;5028867;28;20477;-70
2023/12/19 01:53:41;;;;;;;11.23;7.27;;;2.20;25.20;;;;;;5024656;28;20990;-69
2023/12/19 01:56:08;;;;;;;12.30;7.50;;;2.20;25.20;;;;;;5031182;28;20494;-69
2023/12/19 01:58:36;;;;;;;14.30;8.13;;;2.20;25.30;;;;;;5032962;28;20477;-69
2023/12/19 02:01:04;;;;;;;11.60;7.30;;;2.20;25.10;;;;;;5026634;28;20478;-69
2023/12/19 02:03:32;;;;;;;10.23;6.83;;;2.20;25.00;;;;;;5024046;28;20492;-70
2023/12/19 02:06:01;;;;;;;11.57;7.93;;;2.10;25.10;;;;;;5029159;28;20471;-70
2023/12/19 02:08:28;;;;;;;12.07;7.90;;;2.10;25.20;;;;;;5025049;28;20471;-69
2023/12/19 02:10:54;;;;;;;13.50;8.03;;;2.20;25.00;;;;;;5026461;28;20447;-69
2023/12/19 02:13:22;;;;;;;12.00;7.43;;;2.20;25.10;;;;;;5027072;28;20461;-69
2023/12/19 02:15:49;;;;;;;11.53;7.63;;;2.20;25.10;;;;;;5024806;28;20533;-68
2023/12/19 02:18:17;;;;;;;11.37;7.03;;;2.20;25.30;;;;;;5026769;28;21014;-69
2023/12/19 02:20:43;;;;;;;12.30;8.10;;;2.20;25.20;;;;;;5024684;28;20463;-68
2023/12/19 02:23:11;;;;;;;10.77;7.97;;;2.20;25.30;;;;;;5026821;28;20470;-68
2023/12/19 02:25:38;;;;;;;15.47;8.23;;;2.20;25.30;;;;;;5026019;28;20852;-68
2023/12/19 02:28:05;;;;;;;12.27;7.90;;;2.20;25.40;;;;;;5027187;28;20475;-69
2023/12/19 02:30:34;;;;;;;11.67;7.93;;;2.20;25.50;;;;;;5027266;28;20466;-68
2023/12/19 02:33:01;;;;;;;14.13;8.47;;;2.10;25.50;;;;;;5027463;28;20474;-68
2023/12/19 02:35:28;;;;;;;13.17;7.97;;;2.10;25.50;;;;;;5027280;28;20478;-68
2023/12/19 02:37:54;;;;;;;12.87;7.47;;;2.10;25.50;;;;;;5026080;28;20490;-69
2023/12/19 02:40:23;;;;;;;13.80;8.73;;;2.10;25.50;;;;;;5021377;28;20490;-69
2023/12/19 02:42:49;;;;;;;14.20;8.73;;;2.10;25.60;;;;;;5027368;28;20959;-69
2023/12/19 02:45:16;;;;;;;15.37;9.10;;;2.10;25.70;;;;;;5029041;28;20493;-69
2023/12/19 02:47:43;;;;;;;13.47;8.47;;;2.00;25.60;;;;;;5024532;28;21022;-69
2023/12/19 02:50:10;;;;;;;14.73;8.43;;;2.00;25.80;;;;;;5029483;28;20512;-68
2023/12/19 02:52:37;;;;;;;15.33;9.40;;;2.10;26.10;;;;;;5028540;28;20467;-69
2023/12/19 02:55:05;;;;;;;17.00;9.43;;;2.10;25.90;;;;;;5058786;28;20451;-72
2023/12/19 02:57:33;;;;;;;14.77;8.93;;;2.10;26.10;;;;;;5049124;28;20546;-68
2023/12/19 03:00:00;;;;;;;13.27;8.27;;;2.10;26.30;;;;;;5029026;28;21013;-69
2023/12/19 03:02:27;;;;;;;15.70;9.60;;;2.10;26.30;;;;;;5007719;28;20487;-68
2023/12/19 03:04:54;;;;;;;15.70;10.10;;;2.10;26.20;;;;;;5010373;28;20483;-68
2023/12/19 03:07:21;;;;;;;15.00;9.70;;;2.10;26.20;;;;;;5012158;28;20468;-67
2023/12/19 03:09:48;;;;;;;16.20;9.13;;;2.20;26.20;;;;;;5009004;28;20487;-68
2023/12/19 03:12:15;;;;;;;15.43;9.80;;;2.10;26.30;;;;;;5015389;28;20463;-69
2023/12/19 03:14:43;;;;;;;15.80;10.00;;;2.20;26.20;;;;;;5009767;28;20455;-68
2023/12/19 03:17:09;;;;;;;14.13;9.13;;;2.10;26.30;;;;;;5009274;28;20475;-68
2023/12/19 03:19:36;;;;;;;16.37;10.53;;;2.10;26.80;;;;;;5006207;28;20490;-68
2023/12/19 03:22:03;;;;;;;15.63;9.73;;;2.10;26.10;;;;;;5009926;28;20455;-69
2023/12/19 03:24:30;;;;;;;18.17;10.13;;;2.10;26.20;;;;;;5008231;28;20502;-69
2023/12/19 03:26:56;;;;;;;14.50;9.53;;;2.10;26.20;;;;;;5013944;28;20475;-68
2023/12/19 03:29:23;;;;;;;16.40;9.60;;;2.10;26.10;;;;;;5014262;28;20483;-68
2023/12/19 03:31:51;;;;;;;16.20;10.27;;;2.10;26.10;;;;;;5007186;28;20476;-68
2023/12/19 03:34:18;;;;;;;15.73;9.90;;;2.10;26.10;;;;;;5007686;28;20455;-68
2023/12/19 03:36:44;;;;;;;15.43;9.63;;;2.10;26.30;;;;;;5009390;28;21217;-69
2023/12/19 03:39:11;;;;;;;16.20;9.20;;;2.10;26.20;;;;;;5015988;28;20479;-70
2023/12/19 03:41:38;;;;;;;16.13;9.80;;;2.10;26.30;;;;;;5018881;28;21207;-68
2023/12/19 03:44:05;;;;;;;14.97;9.50;;;2.10;26.20;;;;;;5008482;28;20476;-69
2023/12/19 03:46:31;;;;;;;15.43;9.73;;;2.10;26.30;;;;;;5013992;28;20467;-68
2023/12/19 03:48:59;;;;;;;13.67;9.63;;;2.10;26.50;;;;;;5013427;28;20483;-68
2023/12/19 03:51:26;;;;;;;15.10;10.00;;;2.10;26.50;;;;;;5018991;28;20459;-69
2023/12/19 03:53:53;;;;;;;14.50;9.83;;;2.00;26.50;;;;;;5012099;28;20474;-68
2023/12/19 03:56:19;;;;;;;16.90;10.20;;;2.00;26.40;;;;;;5013424;28;20475;-68
2023/12/19 03:58:46;;;;;;;15.93;9.73;;;2.00;26.40;;;;;;5011963;28;20514;-68
2023/12/19 04:01:13;;;;;;;18.30;11.35;;;2.00;26.40;;;;;;5018450;28;20450;-69
2023/12/19 04:03:40;;;;;;;15.67;9.30;;;2.00;26.80;;;;;;5030886;28;20208;-68
2023/12/19 04:06:08;;;;;;;15.50;9.70;;;2.00;26.40;;;;;;5031375;28;20474;-68
2023/12/19 04:08:34;;;;;;;15.10;10.03;;;2.00;26.40;;;;;;5027928;28;20479;-68
2023/12/19 04:11:01;;;;;;;13.53;9.20;;;2.00;26.20;;;;;;5029002;28;20463;-68
2023/12/19 04:13:29;;;;;;;16.27;10.20;;;2.00;26.30;;;;;;5034876;28;20465;-68
2023/12/19 04:15:55;;;;;;;17.00;10.33;;;2.00;26.20;;;;;;5032013;28;20529;-69
2023/12/19 04:18:22;;;;;;;17.20;9.73;;;2.00;26.20;;;;;;5030807;28;20466;-69
2023/12/19 04:20:49;;;;;;;15.53;9.67;;;2.00;26.30;;;;;;5031178;28;20450;-68
2023/12/19 04:23:17;;;;;;;14.70;10.03;;;2.00;26.30;;;;;;5026600;28;20466;-68
2023/12/19 04:25:44;;;;;;;15.60;9.30;;;2.00;26.50;;;;;;5026592;28;20482;-68
2023/12/19 04:28:10;;;;;;;14.37;8.70;;;2.00;26.60;;;;;;5029549;28;20463;-68
2023/12/19 04:30:37;;;;;;;16.13;9.40;;;2.00;26.70;;;;;;5030583;28;20469;-68
2023/12/19 04:33:04;;;;;;;15.10;8.63;;;2.00;26.50;;;;;;5028186;28;20459;-68
2023/12/19 04:35:31;;;;;;;14.60;8.77;;;2.00;26.50;;;;;;5027172;28;20459;-68
2023/12/19 04:37:58;;;;;;;14.93;8.83;;;2.00;26.50;;;;;;5027014;28;20466;-68
2023/12/19 04:40:26;;;;;;;13.83;8.47;;;2.00;26.40;;;;;;5028841;28;20979;-68
2023/12/19 04:42:53;;;;;;;15.20;8.83;;;2.00;26.70;;;;;;5025707;28;20459;-68
2023/12/19 04:45:19;;;;;;;13.73;8.57;;;2.00;26.70;;;;;;5027071;28;20495;-68
2023/12/19 04:47:46;;;;;;;16.17;9.40;;;2.10;26.80;;;;;;5029311;28;20461;-68
2023/12/19 04:50:13;;;;;;;14.77;9.07;;;2.00;26.80;;;;;;5024940;28;20486;-68
2023/12/19 04:52:39;;;;;;;12.60;8.77;;;2.00;26.70;;;;;;5026424;28;20466;-68
2023/12/19 04:55:06;;;;;;;14.20;9.33;;;2.10;26.70;;;;;;5029020;28;20459;-68
2023/12/19 04:57:35;;;;;;;14.67;9.30;;;2.10;26.50;;;;;;5031988;28;20459;-69
2023/12/19 05:00:04;;;;;;;14.27;8.40;;;2.10;26.30;;;;;;5026745;28;21073;-68
2023/12/19 05:02:31;;;;;;;16.10;10.77;;;2.10;26.10;;;;;;5027811;28;20494;-68
2023/12/19 05:04:57;;;;;;;14.63;8.83;;;2.10;26.10;;;;;;5030016;28;20478;-69
2023/12/19 05:07:24;;;;;;;16.60;10.13;;;2.10;26.10;;;;;;5029620;28;20471;-68
2023/12/19 05:09:51;;;;;;;14.37;9.43;;;2.00;25.90;;;;;;5022339;28;20498;-69
2023/12/19 05:12:19;;;;;;;14.70;9.40;;;2.00;26.10;;;;;;5028014;28;20458;-68
2023/12/19 05:14:47;;;;;;;16.67;10.40;;;2.00;26.10;;;;;;5030609;28;20513;-68
2023/12/19 05:17:13;;;;;;;16.33;9.27;;;2.00;26.10;;;;;;5025273;28;20459;-68
2023/12/19 05:19:40;;;;;;;16.90;10.80;;;2.00;26.10;;;;;;5031108;28;20487;-68
2023/12/19 05:22:07;;;;;;;14.63;9.67;;;2.00;26.10;;;;;;5026787;28;20949;-68
2023/12/19 05:24:34;;;;;;;17.80;10.60;;;2.00;26.20;;;;;;5025787;28;20475;-68
2023/12/19 05:27:01;;;;;;;16.27;10.57;;;2.00;26.10;;;;;;5025905;28;20774;-68
2023/12/19 05:29:27;;;;;;;18.37;10.87;;;2.00;26.10;;;;;;5027854;28;20479;-68
2023/12/19 05:31:57;;;;;;;16.67;10.37;;;2.00;26.20;;;;;;5024652;28;20471;-68
2023/12/19 05:34:23;;;;;;;17.10;10.57;;;2.00;26.20;;;;;;5022795;28;20473;-69
2023/12/19 05:36:50;;;;;;;15.07;10.17;;;2.00;26.40;;;;;;5028849;28;20474;-68
2023/12/19 05:39:17;;;;;;;17.53;10.23;;;2.00;26.40;;;;;;5029531;28;20483;-68
2023/12/19 05:41:44;;;;;;;15.87;9.50;;;2.00;26.30;;;;;;5027186;28;20522;-70
2023/12/19 05:44:11;;;;;;;14.53;9.80;;;2.00;26.30;;;;;;5028199;28;20451;-69
2023/12/19 05:46:38;;;;;;;17.10;9.47;;;2.00;26.30;;;;;;5030424;28;20478;-69
2023/12/19 05:49:06;;;;;;;16.70;10.30;;;1.90;26.30;;;;;;5036497;28;20485;-69
2023/12/19 05:51:33;;;;;;;15.43;10.30;;;1.90;26.50;;;;;;5049295;28;20453;-69
2023/12/19 05:54:00;;;;;;;14.67;9.70;;;1.90;26.40;;;;;;5052139;28;20458;-69
2023/12/19 05:56:26;;;;;;;15.10;9.40;;;1.90;26.60;;;;;;5028871;28;20459;-69
2023/12/19 05:58:53;;;;;;;15.10;9.43;;;1.90;26.70;;;;;;5030949;28;20517;-69
2023/12/19 06:01:21;;;;;;;14.30;9.40;;;1.80;26.60;;;;;;5026436;28;20474;-69
2023/12/19 06:03:48;;;;;;;15.67;9.73;;;1.90;26.70;;;;;;5031498;28;20463;-69
2023/12/19 06:06:16;;;;;;;16.23;9.90;;;1.80;26.70;;;;;;5027383;28;20487;-69
2023/12/19 06:08:43;;;;;;;16.90;9.53;;;1.90;26.70;;;;;;5030578;28;20478;-68
2023/12/19 06:11:10;;;;;;;14.47;8.87;;;1.80;26.70;;;;;;5028077;28;20470;-69
2023/12/19 06:13:37;;;;;;;17.63;10.17;;;1.80;26.80;;;;;;5029608;28;20467;-69
2023/12/19 06:16:05;;;;;;;15.43;9.70;;;1.80;27.00;;;;;;5029590;28;20955;-69
2023/12/19 06:18:32;;;;;;;18.17;10.20;;;1.90;27.10;;;;;;5026097;28;20545;-69
2023/12/19 06:20:59;;;;;;;18.37;10.67;;;1.90;27.00;;;;;;5026753;28;20462;-68
2023/12/19 06:23:28;;;;;;;19.87;11.10;;;1.80;27.10;;;;;;5008160;28;20823;-69
2023/12/19 06:25:55;;;;;;;16.23;9.53;;;1.90;27.10;;;;;;5029625;28;21013;-69
2023/12/19 06:28:22;;;;;;;15.10;10.07;;;1.90;27.00;;;;;;5030833;28;20455;-69
2023/12/19 06:30:49;;;;;;;16.30;9.17;;;1.80;26.90;;;;;;5029880;28;20474;-69
2023/12/19 06:33:16;;;;;;;15.67;9.93;;;1.80;27.00;;;;;;5032974;28;20458;-69
2023/12/19 06:35:46;;;;;;;14.63;9.00;;;1.80;26.90;;;;;;5050097;23;20499;-68
2023/12/19 06:38:13;;;;;;;14.57;9.40;;;1.90;27.00;;;;;;5066633;28;20949;-68
2023/12/19 06:40:41;;;;;;;15.03;8.63;;;1.90;27.00;;;;;;5067522;28;20829;-68
2023/12/19 06:43:10;;;;;;;17.07;10.50;;;1.90;27.10;;;;;;5065284;28;20468;-68
2023/12/19 06:45:37;;;;;;;14.47;9.20;;;1.90;27.00;;;;;;5068893;28;20502;-69
2023/12/19 06:48:04;;;;;;;17.13;9.97;;;1.90;27.00;;;;;;5069993;28;20461;-68
2023/12/19 06:50:31;;;;;;;15.27;9.90;;;1.90;27.20;;;;;;5069906;28;20488;-69
2023/12/19 06:52:58;;;;;;;16.73;10.00;;;2.00;27.00;;;;;;5067803;28;20837;-68
2023/12/19 06:55:25;;;;;;;16.93;8.40;;;2.00;27.00;;;;;;5068939;28;20471;-68
2023/12/19 06:57:55;;;;;;;14.87;9.30;;;2.00;27.20;;;;;;5070902;28;20930;-68
2023/12/19 07:00:22;;;;;;;12.63;8.07;;;2.00;27.10;;;;;;5063329;28;20490;-68
2023/12/19 07:02:48;;;;;;;16.33;9.03;;;2.00;27.10;;;;;;5067945;28;20556;-69
2023/12/19 07:05:15;;;;;;;13.40;8.60;;;2.00;27.10;;;;;;5069272;28;20840;-68
2023/12/19 07:07:42;;;;;;;22.47;10.53;;;2.00;27.00;;;;;;5070795;28;20456;-69
2023/12/19 07:10:10;;;;;;;11.27;7.57;;;2.10;27.00;;;;;;5068486;28;20496;-68
2023/12/19 07:12:38;;;;;;;14.23;8.97;;;2.10;27.00;;;;;;5067975;28;20516;-68
2023/12/19 07:15:08;;;;;;;15.73;9.30;;;2.10;27.00;;;;;;5071279;28;20519;-69
2023/12/19 07:17:35;;;;;;;14.67;8.70;;;2.10;27.00;;;;;;5067610;28;20461;-69
2023/12/19 07:20:02;;;;;;;12.33;7.87;;;2.20;26.90;;;;;;5067663;28;20874;-70
2023/12/19 07:22:29;;;;;;;13.70;8.53;;;2.20;26.80;;;;;;5064427;28;20520;-70
2023/12/19 07:24:56;;;;;;;14.23;9.03;;;2.20;26.60;;;;;;5065211;28;20973;-70
2023/12/19 07:27:23;;;;;;;12.87;7.93;;;2.10;26.70;;;;;;5067273;28;20465;-70
2023/12/19 07:29:49;;;;;;;14.00;8.07;;;2.20;26.50;;;;;;5066503;28;20477;-70
2023/12/19 07:32:17;;;;;;;15.73;9.80;;;2.20;26.40;;;;;;5068835;28;20464;-70
2023/12/19 07:34:44;;;;;;;19.83;10.57;;;2.30;26.50;;;;;;5066773;28;20453;-70
2023/12/19 07:37:11;;;;;;;15.50;8.63;;;2.30;26.30;;;;;;5064978;28;21389;-70
2023/12/19 07:39:37;;;;;;;15.07;9.30;;;2.40;26.10;;;;;;5065720;28;20485;-70
2023/12/19 07:42:05;;;;;;;13.53;8.37;;;2.40;26.10;;;;;;5066377;28;20920;-70
2023/12/19 07:44:31;;;;;;;15.17;8.80;;;2.50;25.80;;;;;;5068712;28;20464;-70
2023/12/19 07:46:58;;;;;;;12.27;7.00;;;2.60;25.30;;;;;;5063260;28;20478;-70
2023/12/19 07:49:27;;;;;;;13.97;8.83;;;2.70;25.20;;;;;;5066483;28;20981;-70
2023/12/19 07:51:53;;;;;;;12.10;8.00;;;2.70;25.10;;;;;;5068519;28;20449;-70
2023/12/19 07:54:20;;;;;;;15.90;8.60;;;2.90;25.10;;;;;;5066743;28;20468;-70
2023/12/19 07:56:47;;;;;;;11.30;8.30;;;3.00;24.70;;;;;;5064202;28;20457;-68
2023/12/19 07:59:14;;;;;;;18.90;13.67;;;3.20;24.60;;;;;;5064869;28;20496;-68
2023/12/19 08:01:41;;;;;;;13.83;9.40;;;3.40;24.30;;;;;;5067452;28;20492;-68
2023/12/19 08:04:08;;;;;;;15.77;10.37;;;3.60;23.50;;;;;;5066578;28;20465;-68
2023/12/19 08:06:36;;;;;;;16.43;11.30;;;4.10;22.50;;;;;;5061730;28;20484;-68
2023/12/19 08:09:04;;;;;;;13.17;9.33;;;4.80;20.80;;;;;;5064711;28;21140;-68
2023/12/19 08:11:31;;;;;;;11.60;7.70;;;5.70;19.00;;;;;;5068444;28;21005;-68
2023/12/19 08:13:58;;;;;;;10.73;6.90;;;6.60;16.80;;;;;;5065666;28;20457;-68
2023/12/19 08:16:25;;;;;;;9.53;6.47;;;7.30;15.00;;;;;;5065241;28;20449;-68
2023/12/19 08:18:52;;;;;;;11.13;6.97;;;8.00;13.10;;;;;;5068088;28;20881;-69
2023/12/19 08:21:19;;;;;;;11.27;6.97;;;8.60;10.70;;;;;;5064280;28;20536;-69
2023/12/19 08:23:48;;;;;;;10.03;6.70;;;9.10;9.50;;;;;;5063010;28;20457;-69
2023/12/19 08:26:15;;;;;;;10.87;6.73;;;9.40;7.90;;;;;;5064773;28;20485;-69
2023/12/19 08:28:41;;;;;;;10.93;7.60;;;9.80;7.50;;;;;;5064726;28;20974;-69
2023/12/19 08:31:08;;;;;;;10.13;6.00;;;10.00;6.80;;;;;;5063396;28;20471;-69
2023/12/19 08:33:35;;;;;;;9.30;6.10;;;10.10;6.30;;;;;;5063955;28;20458;-69
2023/12/19 08:36:02;;;;;;;9.50;6.97;;;10.20;6.10;;;;;;5063267;28;20465;-69
2023/12/19 08:38:29;;;;;;;9.23;6.03;;;10.40;5.70;;;;;;5069545;28;20500;-69
2023/12/19 08:40:57;;;;;;;10.67;6.30;;;10.50;5.50;;;;;;5064381;28;20688;-69
2023/12/19 08:43:23;;;;;;;7.97;6.20;;;10.60;5.40;;;;;;5064504;28;20569;-69
2023/12/19 08:45:50;;;;;;;9.83;6.20;;;10.70;4.50;;;;;;5058561;28;20523;-68
2023/12/19 08:48:17;;;;;;;9.10;6.30;;;10.80;4.30;;;;;;5060311;28;20461;-69
2023/12/19 08:50:44;;;;;;;8.53;6.50;;;10.90;3.90;;;;;;5060988;28;20468;-69
2023/12/19 08:53:12;;;;;;;8.60;5.73;;;11.00;3.60;;;;;;5065412;28;20468;-69
2023/12/19 08:55:39;;;;;;;8.30;5.93;;;11.00;3.50;;;;;;5065898;28;20457;-69
2023/12/19 08:58:08;;;;;;;8.30;5.77;;;11.00;3.80;;;;;;5062097;28;20458;-69
2023/12/19 09:00:35;;;;;;;7.80;5.40;;;11.00;3.60;;;;;;5062153;28;20545;-69
2023/12/19 09:03:05;;;;;;;6.90;5.13;;;11.00;3.40;;;;;;5063045;28;20461;-69
2023/12/19 09:05:32;;;;;;;7.47;5.10;;;11.10;3.70;;;;;;5064304;28;20489;-69
2023/12/19 09:07:59;;;;;;;7.93;5.13;;;11.20;3.10;;;;;;5067470;28;20457;-70
2023/12/19 09:10:26;;;;;;;8.60;6.10;;;11.30;2.60;;;;;;5056553;28;20531;-69
2023/12/19 09:12:52;;;;;;;6.80;5.00;;;11.30;2.10;;;;;;5060521;28;20460;-69
2023/12/19 09:15:21;;;;;;;7.43;5.10;;;11.30;2.20;;;;;;5063426;28;20473;-70
2023/12/19 09:17:47;;;;;;;6.20;4.13;;;11.40;1.40;;;;;;5060274;28;20559;-71
2023/12/19 09:20:15;;;;;;;7.13;5.10;;;11.40;1.40;;;;;;5067190;28;20484;-69
2023/12/19 09:22:42;;;;;;;7.40;5.00;;;11.70;1.20;;;;;;5065103;28;20464;-70
2023/12/19 09:25:14;;;;;;;7.47;5.83;;;12.10;1.00;;;;;;5066426;28;20457;-68
2023/12/19 09:27:41;;;;;;;7.23;5.60;;;12.70;1.00;;;;;;5064669;28;20457;-69
2023/12/19 09:30:09;;;;;;;8.80;5.23;;;13.00;1.00;;;;;;5066805;28;21012;-72
2023/12/19 09:32:38;;;;;;;7.80;5.47;;;13.10;1.00;;;;;;5066702;28;20465;-72
2023/12/19 09:35:06;;;;;;;8.23;5.57;;;13.00;1.00;;;;;;5061624;28;20920;-72
2023/12/19 09:37:33;;;;;;;7.50;5.17;;;12.80;1.00;;;;;;5064082;28;20449;-72
2023/12/19 09:40:00;;;;;;;8.57;5.30;;;12.80;1.00;;;;;;5067438;28;20477;-72
2023/12/19 09:42:27;;;;;;;7.40;4.80;;;12.80;1.00;;;;;;5066853;28;20493;-73
2023/12/19 09:44:54;;;;;;;7.80;5.50;;;12.70;1.00;;;;;;5068121;28;21162;-72
2023/12/19 09:47:24;;;;;;;7.47;5.47;;;12.90;1.00;;;;;;5066047;28;20492;-72
2023/12/19 09:49:54;;;;;;;9.77;5.80;;;13.10;1.00;;;;;;5060764;28;21272;-72
2023/12/19 09:52:24;;;;;;;9.07;6.23;;;13.40;1.00;;;;;;5066453;28;20469;-71
2023/12/19 09:54:51;;;;;;;7.53;5.33;;;13.60;1.00;;;;;;5066258;28;20463;-72
2023/12/19 09:57:19;;;;;;;8.17;5.40;;;13.80;1.00;;;;;;5064164;28;20453;-72
2023/12/19 09:59:48;;;;;;;7.60;5.43;;;13.90;1.00;;;;;;5064524;28;20485;-72
2023/12/19 10:02:15;;;;;;;7.70;5.13;;;13.90;1.00;;;;;;5066604;28;20469;-72
2023/12/19 10:04:42;;;;;;;6.47;4.43;;;13.80;1.00;;;;;;5068202;28;20468;-72
2023/12/19 10:07:10;;;;;;;6.83;4.77;;;13.80;1.00;;;;;;5066423;28;20485;-72
2023/12/19 10:09:51;;;;;;;6.47;4.70;;;13.70;1.00;;;;;;5062786;28;20491;-67
2023/12/19 10:12:18;;;;;;;6.27;4.27;;;13.60;1.00;;;;;;5067245;28;20469;-68
2023/12/19 10:14:46;;;;;;;7.07;4.10;;;13.60;1.00;;;;;;5058846;28;20473;-66
2023/12/19 10:17:15;;;;;;;7.37;4.87;;;13.60;1.00;;;;;;5067504;28;20452;-69
2023/12/19 10:19:42;;;;;;;6.50;4.10;;;13.60;1.00;;;;;;5064130;28;20542;-70
2023/12/19 10:22:12;;;;;;;6.70;4.20;;;13.60;1.00;;;;;;5062253;28;20454;-70
2023/12/19 10:24:39;;;;;;;7.23;4.77;;;13.60;1.00;;;;;;5061233;28;21000;-69
2023/12/19 10:27:07;;;;;;;7.00;4.50;;;13.70;1.00;;;;;;5060742;28;20488;-71
2023/12/19 10:29:37;;;;;;;6.60;4.30;;;13.80;1.00;;;;;;5062371;28;20491;-70
2023/12/19 10:32:13;;;;;;;6.63;4.40;;;13.80;1.00;;;;;;5058784;28;20477;-70
2023/12/19 10:34:40;;;;;;;6.37;4.23;;;13.90;1.00;;;;;;5064298;28;20488;-70
2023/12/19 10:37:12;;;;;;;7.40;5.30;;;14.00;1.00;;;;;;5063513;28;20498;-69
2023/12/19 10:39:40;;;;;;;7.40;5.20;;;14.20;1.00;;;;;;5056461;28;20497;-69
2023/12/19 10:42:09;;;;;;;7.90;5.40;;;14.30;1.00;;;;;;5058254;28;20491;-70
2023/12/19 10:44:38;;;;;;;7.00;5.20;;;14.40;1.00;;;;;;5063403;28;20533;-76
2023/12/19 10:47:06;;;;;;;6.60;4.90;;;14.60;1.00;;;;;;5065546;28;20550;-69
2023/12/19 10:49:33;;;;;;;6.57;4.70;;;14.70;1.00;;;;;;5053973;28;20546;-67
2023/12/19 10:52:05;;;;;;;8.50;5.50;;;14.80;1.00;;;;;;5062358;28;20480;-67
2023/12/19 10:54:36;;;;;;;7.07;5.10;;;14.90;1.00;;;;;;5063953;28;20985;-69
2023/12/19 10:57:06;;;;;;;7.40;4.97;;;15.00;1.00;;;;;;5057307;28;20488;-68
2023/12/19 10:59:45;;;;;;;7.90;5.33;;;14.90;1.00;;;;;;5061909;28;20973;-71
2023/12/19 11:02:21;;;;;;;9.70;5.20;;;14.90;1.00;;;;;;5058864;28;21033;-71
2023/12/19 11:04:53;;;;;;;7.97;5.67;;;14.90;1.00;;;;;;5061958;28;20524;-68
2023/12/19 11:07:22;;;;;;;6.60;4.50;;;14.80;1.00;;;;;;5062526;28;21017;-66
2023/12/19 11:09:59;;;;;;;7.80;5.10;;;14.90;1.00;;;;;;5058017;28;20870;-70
2023/12/19 11:12:27;;;;;;;7.93;5.57;;;15.00;1.00;;;;;;5059778;28;20833;-67
2023/12/19 11:14:53;;;;;;;7.73;5.40;;;15.00;1.00;;;;;;5060559;28;20501;-66
2023/12/19 11:17:26;;;;;;;8.03;5.27;;;15.00;1.00;;;;;;5059461;28;20464;-67
2023/12/19 11:20:06;;;;;;;8.63;6.47;;;15.00;1.00;;;;;;5058515;28;20565;-67
2023/12/19 11:22:36;;;;;;;7.90;5.53;;;14.90;1.00;;;;;;5055461;28;20464;-67
2023/12/19 11:25:15;;;;;;;7.40;5.27;;;14.90;1.00;;;;;;5053961;28;20457;-70
2023/12/19 11:27:50;;;;;;;10.43;5.37;;;14.80;1.00;;;;;;5059080;28;20504;-70
2023/12/19 11:30:35;;;;;;;8.80;5.50;;;14.70;1.00;;;;;;5059163;28;20769;-69
2023/12/19 11:33:02;;;;;;;7.80;5.47;;;14.70;1.00;;;;;;5056409;28;20475;-69
2023/12/19 11:35:30;;;;;;;7.37;5.20;;;14.60;1.00;;;;;;5057540;28;20995;-67
2023/12/19 11:38:24;;;;;;;6.80;4.47;;;14.40;1.00;;;;;;5062255;28;20458;-67
2023/12/19 11:40:54;;;;;;;8.90;5.73;;;14.20;1.00;;;;;;5056696;28;20577;-67
2023/12/19 11:43:54;;;;;;;7.53;5.73;;;13.90;1.00;;;;;;5056730;28;20499;-67
2023/12/19 11:46:23;;;;;;;7.77;5.37;;;13.70;1.00;;;;;;5055426;28;20523;-64
2023/12/19 11:48:51;;;;;;;7.93;5.40;;;13.50;1.00;;;;;;5061004;28;20480;-64
2023/12/19 11:51:53;;;;;;;7.40;5.00;;;13.30;1.00;;;;;;5066638;28;20469;-64
2023/12/19 11:54:20;;;;;;;8.83;6.10;;;13.10;1.00;;;;;;5065549;28;20475;-64
2023/12/19 11:56:59;;;;;;;6.93;5.33;;;12.90;1.00;;;;;;5060470;28;20835;-64
2023/12/19 11:59:47;;;;;;;7.83;5.00;;;12.80;1.00;;;;;;5063759;28;20594;-65
2023/12/19 12:02:27;;;;;;;7.23;4.63;;;12.70;1.00;;;;;;5063999;28;20469;-64
2023/12/19 12:05:04;;;;;;;8.23;5.70;;;12.70;1.00;;;;;;5063798;28;20467;-65
2023/12/19 12:07:31;;;;;;;6.60;4.93;;;12.70;1.00;;;;;;5063141;28;20995;-65
2023/12/19 12:10:04;;;;;;;8.17;5.80;;;12.60;1.00;;;;;;5063756;28;20489;-64
2023/12/19 12:12:35;;;;;;;7.90;4.70;;;12.50;1.00;;;;;;5059396;28;20860;-65
2023/12/19 12:15:09;;;;;;;7.03;4.50;;;12.40;1.00;;;;;;5054934;28;20968;-65
2023/12/19 12:17:36;;;;;;;8.37;6.20;;;12.30;1.00;;;;;;5059045;28;20476;-65
2023/12/19 12:20:03;;;;;;;8.20;4.80;;;12.20;1.00;;;;;;5066852;28;20485;-65
2023/12/19 12:22:31;;;;;;;8.07;5.40;;;12.20;1.00;;;;;;5065863;28;20552;-65
2023/12/19 12:24:58;;;;;;;7.00;5.03;;;12.20;1.00;;;;;;5063929;28;20829;-65
2023/12/19 12:27:25;;;;;;;6.90;4.83;;;12.20;1.00;;;;;;5058189;28;20484;-65
2023/12/19 12:29:53;;;;;;;7.87;5.10;;;12.10;1.00;;;;;;5063129;28;20488;-65
2023/12/19 12:32:20;;;;;;;6.77;4.50;;;12.10;1.00;;;;;;5060456;28;20484;-65
2023/12/19 12:34:47;;;;;;;6.20;3.97;;;12.00;1.00;;;;;;5064004;28;20457;-65
2023/12/19 12:37:16;;;;;;;6.93;4.70;;;11.80;1.00;;;;;;5065723;28;20469;-65
2023/12/19 12:39:43;;;;;;;6.63;4.23;;;11.80;1.00;;;;;;5064959;28;20583;-65
2023/12/19 12:42:10;;;;;;;9.17;4.60;;;11.60;1.10;;;;;;5061341;28;20468;-65
2023/12/19 12:44:37;;;;;;;7.47;3.83;;;11.60;1.20;;;;;;5066447;28;20469;-65
2023/12/19 12:47:06;;;;;;;6.23;3.83;;;11.50;1.20;;;;;;5067243;28;20473;-65
2023/12/19 12:49:33;;;;;;;10.63;4.00;;;11.40;1.20;;;;;;5056913;28;20487;-65
2023/12/19 12:52:00;;;;;;;7.93;4.07;;;11.30;1.50;;;;;;5063272;28;20473;-65